Weather at Paradise Mountain Airport

Public forecast

Using degrees Fahrenheit for public forecast. Weather courtesy of forecast.io.

Closest aviation weather report (METAR) to Paradise Mountain Airport

Closest report is Rogers Municipal Airport-Carter Field, 13.3 nm (24.7 km) WSW. Retrieved 2022/08/13 16:58 UTC (38 minutes ago):

KROG 131658Z 00000KT 10SM CLR 29/21 A3017 RMK AO2 SLP199 T02890206

Closest aviation forecast (TAF) to Paradise Mountain Airport

Closest forecast is Rogers Municipal Airport-Carter Field, 13.3 nm (24.7 km) WSW. Retrieved 2022/08/13 12:22 UTC (5 hours ago):

TAF KROG 131120Z 1312/1412 11004KT P6SM SKC FM131600 16007KT P6SM FEW050 FM140100 14005KT P6SM SKC